sensor_id;sensor_type;location;lat;lon;timestamp;pressure;altitude;pressure_sealevel;temperature;humidity
4598;BME280;62772;48.646;8.906;2022-11-18T00:00:09;94512.56;;;5.89;100.00
4598;BME280;62772;48.646;8.906;2022-11-18T00:05:12;94509.50;;;5.78;100.00
4598;BME280;62772;48.646;8.906;2022-11-18T00:10:13;94519.97;;;6.16;100.00
4598;BME280;62772;48.646;8.906;2022-11-18T00:15:14;94518.59;;;6.31;100.00
4598;BME280;62772;48.646;8.906;2022-11-18T00:20:18;94521.06;;;6.15;100.00
4598;BME280;62772;48.646;8.906;2022-11-18T00:25:18;94526.00;;;6.26;100.00
4598;BME280;62772;48.646;8.906;2022-11-18T00:30:19;94533.63;;;6.27;100.00
4598;BME280;62772;48.646;8.906;2022-11-18T00:35:22;94538.84;;;6.36;100.00
4598;BME280;62772;48.646;8.906;2022-11-18T00:40:23;94538.63;;;6.08;100.00
4598;BME280;62772;48.646;8.906;2022-11-18T00:45:25;94537.41;;;6.39;100.00
4598;BME280;62772;48.646;8.906;2022-11-18T00:50:28;94533.81;;;6.22;100.00
4598;BME280;62772;48.646;8.906;2022-11-18T00:55:29;94536.81;;;6.33;100.00
4598;BME280;62772;48.646;8.906;2022-11-18T01:00:30;94533.81;;;6.22;100.00
4598;BME280;62772;48.646;8.906;2022-11-18T01:05:33;94534.28;;;6.03;100.00
4598;BME280;62772;48.646;8.906;2022-11-18T01:10:35;94537.28;;;5.93;100.00
4598;BME280;62772;48.646;8.906;2022-11-18T01:15:38;94529.34;;;5.72;100.00
4598;BME280;62772;48.646;8.906;2022-11-18T01:20:42;94540.22;;;6.00;100.00
4598;BME280;62772;48.646;8.906;2022-11-18T01:25:44;94543.22;;;5.98;100.00
4598;BME280;62772;48.646;8.906;2022-11-18T01:30:45;94554.28;;;5.92;100.00
4598;BME280;62772;48.646;8.906;2022-11-18T01:35:48;94550.88;;;6.12;100.00
4598;BME280;62772;48.646;8.906;2022-11-18T01:40:49;94560.84;;;6.15;100.00
4598;BME280;62772;48.646;8.906;2022-11-18T01:45:51;94562.28;;;6.13;100.00
4598;BME280;62772;48.646;8.906;2022-11-18T01:50:59;94557.53;;;6.40;100.00
4598;BME280;62772;48.646;8.906;2022-11-18T01:56:05;94562.13;;;6.30;100.00
4598;BME280;62772;48.646;8.906;2022-11-18T02:01:07;94572.03;;;6.00;100.00
4598;BME280;62772;48.646;8.906;2022-11-18T02:06:12;94565.63;;;6.22;100.00
4598;BME280;62772;48.646;8.906;2022-11-18T02:11:14;94570.66;;;5.94;100.00
4598;BME280;62772;48.646;8.906;2022-11-18T02:16:44;94579.09;;;5.87;100.00
4598;BME280;62772;48.646;8.906;2022-11-18T02:21:58;94575.66;;;6.16;100.00
4598;BME280;62772;48.646;8.906;2022-11-18T02:27:24;94578.28;;;6.38;100.00
4598;BME280;62772;48.646;8.906;2022-11-18T02:32:39;94570.91;;;6.43;100.00
4598;BME280;62772;48.646;8.906;2022-11-18T02:37:44;94568.25;;;6.43;100.00
4598;BME280;62772;48.646;8.906;2022-11-18T02:42:52;94571.44;;;6.15;100.00
4598;BME280;62772;48.646;8.906;2022-11-18T02:48:01;94575.31;;;5.67;100.00
4598;BME280;62772;48.646;8.906;2022-11-18T02:53:04;94582.63;;;5.70;100.00
4598;BME280;62772;48.646;8.906;2022-11-18T02:58:07;94582.03;;;5.64;100.00
4598;BME280;62772;48.646;8.906;2022-11-18T03:03:25;94598.16;;;5.51;100.00
4598;BME280;62772;48.646;8.906;2022-11-18T03:08:36;94599.25;;;5.79;100.00
4598;BME280;62772;48.646;8.906;2022-11-18T03:13:45;94608.81;;;5.63;100.00
4598;BME280;62772;48.646;8.906;2022-11-18T03:18:56;94610.56;;;5.59;100.00
4598;BME280;62772;48.646;8.906;2022-11-18T03:24:07;94626.03;;;5.57;100.00
4598;BME280;62772;48.646;8.906;2022-11-18T03:29:14;94630.38;;;5.53;100.00
4598;BME280;62772;48.646;8.906;2022-11-18T03:34:23;94633.06;;;5.44;100.00
4598;BME280;62772;48.646;8.906;2022-11-18T03:39:27;94632.94;;;5.70;100.00
4598;BME280;62772;48.646;8.906;2022-11-18T03:44:32;94645.59;;;6.03;100.00
4598;BME280;62772;48.646;8.906;2022-11-18T03:49:41;94655.00;;;5.83;100.00
4598;BME280;62772;48.646;8.906;2022-11-18T03:54:44;94665.34;;;5.76;100.00
4598;BME280;62772;48.646;8.906;2022-11-18T03:59:48;94677.41;;;5.56;100.00
4598;BME280;62772;48.646;8.906;2022-11-18T04:04:55;94681.78;;;5.52;100.00
4598;BME280;62772;48.646;8.906;2022-11-18T04:10:01;94678.16;;;5.65;100.00
4598;BME280;62772;48.646;8.906;2022-11-18T04:15:04;94683.69;;;5.81;100.00
4598;BME280;62772;48.646;8.906;2022-11-18T04:20:12;94688.44;;;5.67;100.00
4598;BME280;62772;48.646;8.906;2022-11-18T04:25:16;94701.84;;;5.61;100.00
4598;BME280;62772;48.646;8.906;2022-11-18T04:30:17;94702.94;;;6.08;100.00
4598;BME280;62772;48.646;8.906;2022-11-18T04:35:21;94703.38;;;6.10;100.00
4598;BME280;62772;48.646;8.906;2022-11-18T04:40:22;94706.72;;;5.42;100.00
4598;BME280;62772;48.646;8.906;2022-11-18T04:45:23;94710.72;;;5.66;100.00
4598;BME280;62772;48.646;8.906;2022-11-18T04:50:26;94710.47;;;5.97;100.00
4598;BME280;62772;48.646;8.906;2022-11-18T04:55:27;94710.78;;;5.87;100.00
4598;BME280;62772;48.646;8.906;2022-11-18T05:00:27;94709.66;;;5.96;100.00
4598;BME280;62772;48.646;8.906;2022-11-18T05:05:32;94714.00;;;6.01;100.00
4598;BME280;62772;48.646;8.906;2022-11-18T05:10:33;94725.03;;;6.12;100.00
4598;BME280;62772;48.646;8.906;2022-11-18T05:15:34;94717.91;;;5.95;100.00
4598;BME280;62772;48.646;8.906;2022-11-18T05:20:38;94721.19;;;6.01;100.00
4598;BME280;62772;48.646;8.906;2022-11-18T05:25:39;94728.47;;;6.12;100.00
4598;BME280;62772;48.646;8.906;2022-11-18T05:30:40;94741.63;;;6.00;100.00
4598;BME280;62772;48.646;8.906;2022-11-18T05:35:43;94753.84;;;5.66;100.00
4598;BME280;62772;48.646;8.906;2022-11-18T05:40:45;94748.03;;;5.90;100.00
4598;BME280;62772;48.646;8.906;2022-11-18T05:45:49;94748.34;;;5.89;100.00
4598;BME280;62772;48.646;8.906;2022-11-18T05:50:53;94757.06;;;5.89;100.00
4598;BME280;62772;48.646;8.906;2022-11-18T05:55:59;94758.16;;;5.97;100.00
4598;BME280;62772;48.646;8.906;2022-11-18T06:01:04;94759.16;;;6.22;100.00
4598;BME280;62772;48.646;8.906;2022-11-18T06:06:09;94769.97;;;5.99;100.00
4598;BME280;62772;48.646;8.906;2022-11-18T06:11:14;94774.34;;;5.95;100.00
4598;BME280;62772;48.646;8.906;2022-11-18T06:16:18;94774.00;;;5.58;100.00
4598;BME280;62772;48.646;8.906;2022-11-18T06:21:23;94779.66;;;5.87;100.00
4598;BME280;62772;48.646;8.906;2022-11-18T06:26:24;94784.03;;;5.91;100.00
4598;BME280;62772;48.646;8.906;2022-11-18T06:31:24;94789.00;;;5.93;100.00
4598;BME280;62772;48.646;8.906;2022-11-18T06:36:28;94794.66;;;5.82;100.00
4598;BME280;62772;48.646;8.906;2022-11-18T06:41:29;94803.38;;;5.92;100.00
4598;BME280;62772;48.646;8.906;2022-11-18T06:46:29;94811.75;;;5.94;100.00
4598;BME280;62772;48.646;8.906;2022-11-18T06:51:51;94816.06;;;5.60;100.00
4598;BME280;62772;48.646;8.906;2022-11-18T06:56:52;94826.63;;;5.69;100.00
4598;BME280;62772;48.646;8.906;2022-11-18T07:01:53;94836.16;;;5.43;100.00
4598;BME280;62772;48.646;8.906;2022-11-18T07:06:59;94844.22;;;5.64;100.00
4598;BME280;62772;48.646;8.906;2022-11-18T07:12:00;94843.88;;;5.84;100.00
4598;BME280;62772;48.646;8.906;2022-11-18T07:17:02;94846.69;;;5.87;100.00
4598;BME280;62772;48.646;8.906;2022-11-18T07:22:05;94861.84;;;5.34;100.00
4598;BME280;62772;48.646;8.906;2022-11-18T07:27:07;94859.50;;;5.50;100.00
4598;BME280;62772;48.646;8.906;2022-11-18T07:32:08;94873.69;;;5.72;100.00
4598;BME280;62772;48.646;8.906;2022-11-18T07:37:11;94883.97;;;5.21;100.00
4598;BME280;62772;48.646;8.906;2022-11-18T07:42:12;94885.53;;;5.57;100.00
4598;BME280;62772;48.646;8.906;2022-11-18T07:47:13;94889.88;;;5.70;100.00
4598;BME280;62772;48.646;8.906;2022-11-18T07:52:16;94907.78;;;5.91;100.00
4598;BME280;62772;48.646;8.906;2022-11-18T07:57:17;94906.41;;;5.67;100.00
4598;BME280;62772;48.646;8.906;2022-11-18T08:02:18;94910.75;;;5.80;100.00
4598;BME280;62772;48.646;8.906;2022-11-18T08:07:21;94912.78;;;6.01;100.00
4598;BME280;62772;48.646;8.906;2022-11-18T08:12:22;94917.00;;;5.58;100.00
4598;BME280;62772;48.646;8.906;2022-11-18T08:17:23;94924.63;;;5.77;100.00
4598;BME280;62772;48.646;8.906;2022-11-18T08:22:26;94925.72;;;5.94;100.00
4598;BME280;62772;48.646;8.906;2022-11-18T08:27:27;94932.75;;;5.98;100.00
4598;BME280;62772;48.646;8.906;2022-11-18T08:32:27;94939.59;;;5.91;100.00
4598;BME280;62772;48.646;8.906;2022-11-18T08:37:31;94943.66;;;5.97;100.00
4598;BME280;62772;48.646;8.906;2022-11-18T08:42:33;94953.75;;;6.12;100.00
4598;BME280;62772;48.646;8.906;2022-11-18T08:47:34;94953.44;;;6.14;100.00
4598;BME280;62772;48.646;8.906;2022-11-18T08:52:37;94956.41;;;5.86;100.00
4598;BME280;62772;48.646;8.906;2022-11-18T08:57:38;94951.91;;;6.04;100.00
4598;BME280;62772;48.646;8.906;2022-11-18T09:02:39;94959.03;;;5.95;100.00
4598;BME280;62772;48.646;8.906;2022-11-18T09:07:43;94967.50;;;5.97;100.00
4598;BME280;62772;48.646;8.906;2022-11-18T09:12:44;94971.53;;;5.86;100.00
4598;BME280;62772;48.646;8.906;2022-11-18T09:17:44;94981.69;;;6.01;100.00
4598;BME280;62772;48.646;8.906;2022-11-18T09:22:48;94979.19;;;6.22;100.00
4598;BME280;62772;48.646;8.906;2022-11-18T09:27:49;94980.69;;;6.41;100.00
4598;BME280;62772;48.646;8.906;2022-11-18T09:32:52;94978.66;;;6.46;100.00
4598;BME280;62772;48.646;8.906;2022-11-18T09:37:55;94980.69;;;6.49;100.00
4598;BME280;62772;48.646;8.906;2022-11-18T09:43:03;94990.63;;;6.61;100.00
4598;BME280;62772;48.646;8.906;2022-11-18T09:48:15;94999.41;;;6.53;100.00
4598;BME280;62772;48.646;8.906;2022-11-18T09:53:21;94997.88;;;6.34;100.00
4598;BME280;62772;48.646;8.906;2022-11-18T09:58:31;95004.75;;;6.27;100.00
4598;BME280;62772;48.646;8.906;2022-11-18T10:03:32;95009.25;;;6.44;100.00
4598;BME280;62772;48.646;8.906;2022-11-18T10:08:44;95005.47;;;6.53;100.00
4598;BME280;62772;48.646;8.906;2022-11-18T10:13:54;95008.72;;;6.68;100.00
4598;BME280;62772;48.646;8.906;2022-11-18T10:19:04;95016.53;;;6.64;100.00
4598;BME280;62772;48.646;8.906;2022-11-18T10:24:16;95006.31;;;6.84;100.00
4598;BME280;62772;48.646;8.906;2022-11-18T10:29:18;95014.91;;;6.81;100.00
4598;BME280;62772;48.646;8.906;2022-11-18T10:34:19;95023.00;;;7.02;100.00
4598;BME280;62772;48.646;8.906;2022-11-18T10:39:22;95024.72;;;6.98;100.00
4598;BME280;62772;48.646;8.906;2022-11-18T10:44:32;95039.81;;;7.15;100.00
4598;BME280;62772;48.646;8.906;2022-11-18T10:49:37;95038.69;;;6.68;100.00
4598;BME280;62772;48.646;8.906;2022-11-18T10:54:42;95038.69;;;6.60;100.00
4598;BME280;62772;48.646;8.906;2022-11-18T10:59:46;95056.81;;;6.49;100.00
4598;BME280;62772;48.646;8.906;2022-11-18T11:04:48;95044.50;;;6.53;100.00
4598;BME280;62772;48.646;8.906;2022-11-18T11:10:18;95053.06;;;6.67;100.00
4598;BME280;62772;48.646;8.906;2022-11-18T11:15:24;95053.69;;;6.64;100.00
4598;BME280;62772;48.646;8.906;2022-11-18T11:20:27;95052.06;;;6.81;100.00
4598;BME280;62772;48.646;8.906;2022-11-18T11:25:34;95042.97;;;6.99;100.00
4598;BME280;62772;48.646;8.906;2022-11-18T11:30:44;95049.34;;;7.07;100.00
4598;BME280;62772;48.646;8.906;2022-11-18T11:35:53;95062.75;;;7.11;100.00
4598;BME280;62772;48.646;8.906;2022-11-18T11:41:06;95062.63;;;6.98;100.00
4598;BME280;62772;48.646;8.906;2022-11-18T11:46:21;95059.34;;;7.01;100.00
4598;BME280;62772;48.646;8.906;2022-11-18T11:51:30;95060.66;;;6.95;100.00
4598;BME280;62772;48.646;8.906;2022-11-18T11:56:37;95062.19;;;7.05;100.00
4598;BME280;62772;48.646;8.906;2022-11-18T12:01:51;95065.47;;;7.40;100.00
4598;BME280;62772;48.646;8.906;2022-11-18T12:06:55;95072.88;;;7.26;100.00
4598;BME280;62772;48.646;8.906;2022-11-18T12:12:04;95075.97;;;7.37;100.00
4598;BME280;62772;48.646;8.906;2022-11-18T12:17:32;95075.72;;;7.21;100.00
4598;BME280;62772;48.646;8.906;2022-11-18T12:23:07;95073.06;;;7.21;100.00
4598;BME280;62772;48.646;8.906;2022-11-18T12:28:22;95075.00;;;7.41;100.00
4598;BME280;62772;48.646;8.906;2022-11-18T12:33:23;95080.63;;;7.40;100.00
4598;BME280;62772;48.646;8.906;2022-11-18T12:38:28;95083.31;;;7.31;100.00
4598;BME280;62772;48.646;8.906;2022-11-18T12:54:37;95098.19;;;7.23;100.00
4598;BME280;62772;48.646;8.906;2022-11-18T12:59:43;95102.72;;;7.14;100.00
4598;BME280;62772;48.646;8.906;2022-11-18T13:04:44;95101.38;;;7.08;100.00
4598;BME280;62772;48.646;8.906;2022-11-18T13:09:47;95098.66;;;7.17;100.00
4598;BME280;62772;48.646;8.906;2022-11-18T13:14:48;95103.38;;;7.11;100.00
4598;BME280;62772;48.646;8.906;2022-11-18T13:20:22;95103.13;;;6.95;100.00
4598;BME280;62772;48.646;8.906;2022-11-18T13:25:26;95105.78;;;6.95;100.00
4598;BME280;62772;48.646;8.906;2022-11-18T13:30:28;95098.72;;;6.99;100.00
4598;BME280;62772;48.646;8.906;2022-11-18T13:35:30;95098.28;;;6.88;100.00
4598;BME280;62772;48.646;8.906;2022-11-18T13:40:38;95099.69;;;6.86;100.00
4598;BME280;62772;48.646;8.906;2022-11-18T13:46:05;95108.47;;;6.78;100.00
4598;BME280;62772;48.646;8.906;2022-11-18T13:51:06;95117.78;;;6.84;100.00
4598;BME280;62772;48.646;8.906;2022-11-18T13:56:16;95117.19;;;6.78;100.00
4598;BME280;62772;48.646;8.906;2022-11-18T14:01:21;95118.75;;;6.70;100.00
4598;BME280;62772;48.646;8.906;2022-11-18T14:06:24;95128.28;;;6.63;100.00
4598;BME280;62772;48.646;8.906;2022-11-18T14:11:37;95119.53;;;6.62;100.00
4598;BME280;62772;48.646;8.906;2022-11-18T14:16:40;95124.69;;;6.59;100.00
4598;BME280;62772;48.646;8.906;2022-11-18T14:21:41;95118.91;;;6.65;100.00
4598;BME280;62772;48.646;8.906;2022-11-18T14:26:45;95126.22;;;6.86;100.00
4598;BME280;62772;48.646;8.906;2022-11-18T14:32:02;95128.56;;;6.87;100.00
4598;BME280;62772;48.646;8.906;2022-11-18T14:37:08;95139.19;;;6.61;100.00
4598;BME280;62772;48.646;8.906;2022-11-18T14:42:13;95135.13;;;6.55;100.00
4598;BME280;62772;48.646;8.906;2022-11-18T14:47:20;95130.13;;;6.53;100.00
4598;BME280;62772;48.646;8.906;2022-11-18T14:52:22;95144.66;;;6.47;100.00
4598;BME280;62772;48.646;8.906;2022-11-18T14:57:25;95147.47;;;6.60;100.00
4598;BME280;62772;48.646;8.906;2022-11-18T15:02:26;95157.16;;;6.38;100.00
4598;BME280;62772;48.646;8.906;2022-11-18T15:07:27;95157.78;;;6.52;100.00
4598;BME280;62772;48.646;8.906;2022-11-18T15:12:30;95164.66;;;6.62;100.00
4598;BME280;62772;48.646;8.906;2022-11-18T15:17:31;95170.72;;;6.54;100.00
4598;BME280;62772;48.646;8.906;2022-11-18T15:22:32;95176.94;;;6.41;100.00
4598;BME280;62772;48.646;8.906;2022-11-18T15:27:36;95175.56;;;6.43;100.00
4598;BME280;62772;48.646;8.906;2022-11-18T15:32:37;95183.22;;;6.62;100.00
4598;BME280;62772;48.646;8.906;2022-11-18T15:37:38;95177.75;;;6.59;100.00
4598;BME280;62772;48.646;8.906;2022-11-18T15:42:41;95183.38;;;6.75;100.00
4598;BME280;62772;48.646;8.906;2022-11-18T15:47:42;95184.63;;;6.51;100.00
4598;BME280;62772;48.646;8.906;2022-11-18T15:52:43;95186.31;;;6.47;100.00
4598;BME280;62772;48.646;8.906;2022-11-18T15:57:46;95195.81;;;6.30;100.00
4598;BME280;62772;48.646;8.906;2022-11-18T16:02:47;95185.06;;;6.35;100.00
4598;BME280;62772;48.646;8.906;2022-11-18T16:07:48;95196.63;;;6.40;100.00
4598;BME280;62772;48.646;8.906;2022-11-18T16:12:51;95200.66;;;6.28;100.00
4598;BME280;62772;48.646;8.906;2022-11-18T16:17:52;95205.94;;;6.20;100.00
4598;BME280;62772;48.646;8.906;2022-11-18T16:22:54;95206.91;;;6.50;100.00
4598;BME280;62772;48.646;8.906;2022-11-18T16:27:58;95203.72;;;5.73;100.00
4598;BME280;62772;48.646;8.906;2022-11-18T16:32:58;95208.13;;;5.86;100.00
4598;BME280;62772;48.646;8.906;2022-11-18T16:37:59;95205.84;;;5.93;100.00
4598;BME280;62772;48.646;8.906;2022-11-18T16:43:03;95216.31;;;5.98;100.00
4598;BME280;62772;48.646;8.906;2022-11-18T16:48:04;95222.38;;;5.68;100.00
4598;BME280;62772;48.646;8.906;2022-11-18T16:53:05;95236.72;;;5.98;100.00
4598;BME280;62772;48.646;8.906;2022-11-18T16:58:08;95243.13;;;5.97;100.00
4598;BME280;62772;48.646;8.906;2022-11-18T17:03:11;95243.09;;;5.66;100.00
4598;BME280;62772;48.646;8.906;2022-11-18T17:08:12;95249.03;;;4.95;100.00
4598;BME280;62772;48.646;8.906;2022-11-18T17:13:15;95259.44;;;5.59;100.00
4598;BME280;62772;48.646;8.906;2022-11-18T17:18:16;95258.69;;;5.67;100.00
4598;BME280;62772;48.646;8.906;2022-11-18T17:23:17;95260.88;;;5.65;100.00
4598;BME280;62772;48.646;8.906;2022-11-18T17:28:20;95266.56;;;5.27;100.00
4598;BME280;62772;48.646;8.906;2022-11-18T17:33:21;95270.88;;;5.45;100.00
4598;BME280;62772;48.646;8.906;2022-11-18T17:38:22;95276.00;;;5.42;100.00
4598;BME280;62772;48.646;8.906;2022-11-18T17:43:26;95278.22;;;5.26;100.00
4598;BME280;62772;48.646;8.906;2022-11-18T17:48:29;95277.16;;;5.27;100.00
4598;BME280;62772;48.646;8.906;2022-11-18T17:53:31;95285.56;;;5.29;100.00
4598;BME280;62772;48.646;8.906;2022-11-18T17:58:34;95281.41;;;5.14;100.00
4598;BME280;62772;48.646;8.906;2022-11-18T18:03:35;95279.97;;;5.31;100.00
4598;BME280;62772;48.646;8.906;2022-11-18T18:08:37;95279.78;;;5.27;100.00
4598;BME280;62772;48.646;8.906;2022-11-18T18:13:40;95296.94;;;5.30;100.00
4598;BME280;62772;48.646;8.906;2022-11-18T18:19:02;95296.03;;;5.34;100.00
4598;BME280;62772;48.646;8.906;2022-11-18T18:24:05;95299.78;;;5.33;100.00
4598;BME280;62772;48.646;8.906;2022-11-18T18:29:09;95302.59;;;5.37;100.00
4598;BME280;62772;48.646;8.906;2022-11-18T18:34:10;95313.53;;;5.21;100.00
4598;BME280;62772;48.646;8.906;2022-11-18T18:39:11;95316.97;;;5.22;100.00
4598;BME280;62772;48.646;8.906;2022-11-18T18:44:14;95321.00;;;5.19;100.00
4598;BME280;62772;48.646;8.906;2022-11-18T18:49:15;95313.53;;;5.21;100.00
4598;BME280;62772;48.646;8.906;2022-11-18T18:54:19;95318.66;;;5.40;100.00
4598;BME280;62772;48.646;8.906;2022-11-18T18:59:23;95314.22;;;5.27;100.00
4598;BME280;62772;48.646;8.906;2022-11-18T19:04:24;95326.31;;;5.05;100.00
4598;BME280;62772;48.646;8.906;2022-11-18T19:09:25;95336.16;;;4.91;100.00
4598;BME280;62772;48.646;8.906;2022-11-18T19:14:29;95335.44;;;4.99;100.00
4598;BME280;62772;48.646;8.906;2022-11-18T19:19:29;95338.84;;;5.14;100.00
4598;BME280;62772;48.646;8.906;2022-11-18T19:24:49;95338.91;;;5.36;100.00
4598;BME280;62772;48.646;8.906;2022-11-18T19:29:52;95344.47;;;5.35;100.00
4598;BME280;62772;48.646;8.906;2022-11-18T19:34:53;95340.09;;;5.30;100.00
4598;BME280;62772;48.646;8.906;2022-11-18T19:39:54;95330.81;;;5.41;100.00
4598;BME280;62772;48.646;8.906;2022-11-18T19:44:57;95338.78;;;5.41;100.00
4598;BME280;62772;48.646;8.906;2022-11-18T19:49:58;95334.25;;;5.42;100.00
4598;BME280;62772;48.646;8.906;2022-11-18T19:54:59;95340.13;;;5.16;100.00
4598;BME280;62772;48.646;8.906;2022-11-18T20:00:03;95346.06;;;4.85;100.00
4598;BME280;62772;48.646;8.906;2022-11-18T20:05:09;95339.84;;;5.04;100.00
4598;BME280;62772;48.646;8.906;2022-11-18T20:10:29;95344.03;;;5.19;100.00
4598;BME280;62772;48.646;8.906;2022-11-18T20:15:32;95338.91;;;5.36;100.00
4598;BME280;62772;48.646;8.906;2022-11-18T20:20:33;95347.34;;;5.47;100.00
4598;BME280;62772;48.646;8.906;2022-11-18T20:25:34;95353.03;;;4.81;100.00
4598;BME280;62772;48.646;8.906;2022-11-18T20:30:38;95349.44;;;4.63;100.00
4598;BME280;62772;48.646;8.906;2022-11-18T20:35:38;95348.44;;;4.59;100.00
4598;BME280;62772;48.646;8.906;2022-11-18T20:40:39;95348.13;;;4.47;100.00
4598;BME280;62772;48.646;8.906;2022-11-18T20:45:51;95355.41;;;4.41;100.00
4598;BME280;62772;48.646;8.906;2022-11-18T20:50:52;95351.28;;;4.49;100.00
4598;BME280;62772;48.646;8.906;2022-11-18T20:55:53;95357.13;;;4.04;100.00
4598;BME280;62772;48.646;8.906;2022-11-18T21:00:56;95358.28;;;3.98;100.00
4598;BME280;62772;48.646;8.906;2022-11-18T21:06:03;95365.06;;;4.18;100.00
4598;BME280;62772;48.646;8.906;2022-11-18T21:11:06;95371.25;;;4.27;100.00
4598;BME280;62772;48.646;8.906;2022-11-18T21:16:10;95366.25;;;4.67;100.00
4598;BME280;62772;48.646;8.906;2022-11-18T21:21:11;95366.19;;;4.72;100.00
4598;BME280;62772;48.646;8.906;2022-11-18T21:26:32;95374.97;;;4.40;100.00
4598;BME280;62772;48.646;8.906;2022-11-18T21:31:36;95378.50;;;4.49;100.00
4598;BME280;62772;48.646;8.906;2022-11-18T21:36:38;95371.34;;;4.92;100.00
4598;BME280;62772;48.646;8.906;2022-11-18T21:41:41;95374.78;;;4.92;100.00
4598;BME280;62772;48.646;8.906;2022-11-18T21:46:45;95371.66;;;4.62;100.00
4598;BME280;62772;48.646;8.906;2022-11-18T21:51:46;95364.09;;;4.83;100.00
4598;BME280;62772;48.646;8.906;2022-11-18T21:56:47;95369.31;;;4.61;100.00
4598;BME280;62772;48.646;8.906;2022-11-18T22:01:50;95373.91;;;4.55;100.00
4598;BME280;62772;48.646;8.906;2022-11-18T22:06:51;95374.75;;;4.23;100.00
4598;BME280;62772;48.646;8.906;2022-11-18T22:11:51;95373.13;;;4.68;100.00
4598;BME280;62772;48.646;8.906;2022-11-18T22:16:55;95373.41;;;4.67;100.00
4598;BME280;62772;48.646;8.906;2022-11-18T22:21:56;95366.47;;;4.71;100.00
4598;BME280;62772;48.646;8.906;2022-11-18T22:26:56;95372.72;;;4.75;100.00
4598;BME280;62772;48.646;8.906;2022-11-18T22:32:00;95383.00;;;4.90;100.00
4598;BME280;62772;48.646;8.906;2022-11-18T22:37:04;95381.41;;;5.03;100.00
4598;BME280;62772;48.646;8.906;2022-11-18T22:42:05;95374.59;;;4.75;100.00
4598;BME280;62772;48.646;8.906;2022-11-18T22:47:26;95389.56;;;4.51;100.00
4598;BME280;62772;48.646;8.906;2022-11-18T22:52:27;95383.31;;;4.61;100.00
4598;BME280;62772;48.646;8.906;2022-11-18T22:57:32;95394.19;;;4.73;100.00
4598;BME280;62772;48.646;8.906;2022-11-18T23:02:35;95402.72;;;4.57;100.00
4598;BME280;62772;48.646;8.906;2022-11-18T23:07:36;95403.38;;;4.62;100.00
4598;BME280;62772;48.646;8.906;2022-11-18T23:12:37;95403.78;;;4.83;100.00
4598;BME280;62772;48.646;8.906;2022-11-18T23:17:59;95403.41;;;4.76;100.00
4598;BME280;62772;48.646;8.906;2022-11-18T23:22:59;95399.53;;;4.96;100.00
4598;BME280;62772;48.646;8.906;2022-11-18T23:28:00;95401.16;;;4.69;100.00
4598;BME280;62772;48.646;8.906;2022-11-18T23:33:03;95402.69;;;4.84;100.00
4598;BME280;62772;48.646;8.906;2022-11-18T23:38:04;95395.16;;;4.78;100.00
4598;BME280;62772;48.646;8.906;2022-11-18T23:43:05;95389.38;;;4.76;100.00
4598;BME280;62772;48.646;8.906;2022-11-18T23:48:08;95398.75;;;4.40;100.00
4598;BME280;62772;48.646;8.906;2022-11-18T23:53:09;95398.19;;;4.57;100.00
4598;BME280;62772;48.646;8.906;2022-11-18T23:58:10;95402.72;;;4.57;100.00
